sensor_id;sensor_type;location;lat;lon;timestamp;temperature;humidity
21778;DHT22;11050;52.222;20.916;2022-07-29T00:01:23;15.30;99.90
21778;DHT22;11050;52.222;20.916;2022-07-29T00:03:48;15.30;99.90
21778;DHT22;11050;52.222;20.916;2022-07-29T00:06:15;15.30;99.90
21778;DHT22;11050;52.222;20.916;2022-07-29T00:08:41;15.30;99.90
21778;DHT22;11050;52.222;20.916;2022-07-29T00:11:06;15.30;99.90
21778;DHT22;11050;52.222;20.916;2022-07-29T00:13:32;15.30;99.90
21778;DHT22;11050;52.222;20.916;2022-07-29T00:15:58;15.30;99.90
21778;DHT22;11050;52.222;20.916;2022-07-29T00:18:24;15.30;99.90
21778;DHT22;11050;52.222;20.916;2022-07-29T00:20:50;15.20;99.90
21778;DHT22;11050;52.222;20.916;2022-07-29T00:23:16;15.20;99.90
21778;DHT22;11050;52.222;20.916;2022-07-29T00:25:41;15.20;99.90
21778;DHT22;11050;52.222;20.916;2022-07-29T00:28:07;15.10;99.90
21778;DHT22;11050;52.222;20.916;2022-07-29T00:30:33;15.10;99.90
21778;DHT22;11050;52.222;20.916;2022-07-29T00:32:59;15.10;99.90
21778;DHT22;11050;52.222;20.916;2022-07-29T00:35:24;15.10;99.90
21778;DHT22;11050;52.222;20.916;2022-07-29T00:38:10;15.10;99.90
21778;DHT22;11050;52.222;20.916;2022-07-29T00:40:37;15.10;99.90
21778;DHT22;11050;52.222;20.916;2022-07-29T00:43:02;15.10;99.90
21778;DHT22;11050;52.222;20.916;2022-07-29T00:45:28;15.10;99.90
21778;DHT22;11050;52.222;20.916;2022-07-29T00:47:55;15.00;99.90
21778;DHT22;11050;52.222;20.916;2022-07-29T00:50:21;15.00;99.90
21778;DHT22;11050;52.222;20.916;2022-07-29T00:52:48;15.00;99.90
21778;DHT22;11050;52.222;20.916;2022-07-29T00:55:16;15.00;99.90
21778;DHT22;11050;52.222;20.916;2022-07-29T00:57:43;15.00;99.90
21778;DHT22;11050;52.222;20.916;2022-07-29T01:00:13;15.00;99.90
21778;DHT22;11050;52.222;20.916;2022-07-29T01:02:42;14.90;99.90
21778;DHT22;11050;52.222;20.916;2022-07-29T01:05:11;14.90;99.90
21778;DHT22;11050;52.222;20.916;2022-07-29T01:07:39;14.90;99.90
21778;DHT22;11050;52.222;20.916;2022-07-29T01:10:07;14.90;99.90
21778;DHT22;11050;52.222;20.916;2022-07-29T01:12:36;14.80;99.90
21778;DHT22;11050;52.222;20.916;2022-07-29T01:15:05;14.80;99.90
21778;DHT22;11050;52.222;20.916;2022-07-29T01:26:57;14.70;99.90
21778;DHT22;11050;52.222;20.916;2022-07-29T01:29:37;14.70;99.90
21778;DHT22;11050;52.222;20.916;2022-07-29T01:32:19;14.70;99.90
21778;DHT22;11050;52.222;20.916;2022-07-29T01:34:48;14.70;99.90
21778;DHT22;11050;52.222;20.916;2022-07-29T01:37:23;14.60;99.90
21778;DHT22;11050;52.222;20.916;2022-07-29T01:39:56;14.60;99.90
21778;DHT22;11050;52.222;20.916;2022-07-29T01:47:43;14.60;99.90
21778;DHT22;11050;52.222;20.916;2022-07-29T01:50:16;14.60;99.90
21778;DHT22;11050;52.222;20.916;2022-07-29T01:53:00;14.60;99.90
21778;DHT22;11050;52.222;20.916;2022-07-29T01:55:32;14.60;99.90
21778;DHT22;11050;52.222;20.916;2022-07-29T01:58:08;14.60;99.90
21778;DHT22;11050;52.222;20.916;2022-07-29T02:00:37;14.60;99.90
21778;DHT22;11050;52.222;20.916;2022-07-29T02:03:09;14.60;99.90
21778;DHT22;11050;52.222;20.916;2022-07-29T02:05:39;14.60;99.90
21778;DHT22;11050;52.222;20.916;2022-07-29T02:08:08;14.60;99.90
21778;DHT22;11050;52.222;20.916;2022-07-29T02:10:37;14.60;99.90
21778;DHT22;11050;52.222;20.916;2022-07-29T02:13:06;14.60;99.90
21778;DHT22;11050;52.222;20.916;2022-07-29T02:15:35;14.60;99.90
21778;DHT22;11050;52.222;20.916;2022-07-29T02:18:13;14.60;99.90
21778;DHT22;11050;52.222;20.916;2022-07-29T02:20:45;14.60;99.90
21778;DHT22;11050;52.222;20.916;2022-07-29T02:23:20;14.50;99.90
21778;DHT22;11050;52.222;20.916;2022-07-29T02:25:53;14.50;99.90
21778;DHT22;11050;52.222;20.916;2022-07-29T02:28:27;14.50;99.90
21778;DHT22;11050;52.222;20.916;2022-07-29T02:30:58;14.50;99.90
21778;DHT22;11050;52.222;20.916;2022-07-29T02:33:27;14.50;99.90
21778;DHT22;11050;52.222;20.916;2022-07-29T02:35:58;14.40;99.90
21778;DHT22;11050;52.222;20.916;2022-07-29T02:38:27;14.40;99.90
21778;DHT22;11050;52.222;20.916;2022-07-29T02:41:19;14.40;99.90
21778;DHT22;11050;52.222;20.916;2022-07-29T02:43:52;14.40;99.90
21778;DHT22;11050;52.222;20.916;2022-07-29T02:46:28;14.30;99.90
21778;DHT22;11050;52.222;20.916;2022-07-29T02:49:16;14.30;99.90
21778;DHT22;11050;52.222;20.916;2022-07-29T02:54:51;14.30;99.90
21778;DHT22;11050;52.222;20.916;2022-07-29T03:00:06;14.30;99.90
21778;DHT22;11050;52.222;20.916;2022-07-29T03:02:36;14.30;99.90
21778;DHT22;11050;52.222;20.916;2022-07-29T03:05:08;14.30;99.90
21778;DHT22;11050;52.222;20.916;2022-07-29T03:07:36;14.30;99.90
21778;DHT22;11050;52.222;20.916;2022-07-29T03:10:06;14.30;99.90
21778;DHT22;11050;52.222;20.916;2022-07-29T03:12:35;14.20;99.90
21778;DHT22;11050;52.222;20.916;2022-07-29T03:15:01;14.20;99.90
21778;DHT22;11050;52.222;20.916;2022-07-29T03:17:28;14.30;99.90
21778;DHT22;11050;52.222;20.916;2022-07-29T03:19:57;14.20;99.90
21778;DHT22;11050;52.222;20.916;2022-07-29T03:22:24;14.20;99.90
21778;DHT22;11050;52.222;20.916;2022-07-29T03:24:50;14.30;99.90
21778;DHT22;11050;52.222;20.916;2022-07-29T03:27:16;14.30;99.90
21778;DHT22;11050;52.222;20.916;2022-07-29T03:29:42;14.30;99.90
21778;DHT22;11050;52.222;20.916;2022-07-29T03:32:08;14.30;99.90
21778;DHT22;11050;52.222;20.916;2022-07-29T03:34:34;14.30;99.90
21778;DHT22;11050;52.222;20.916;2022-07-29T03:37:02;14.30;99.90
21778;DHT22;11050;52.222;20.916;2022-07-29T03:39:33;14.40;99.90
21778;DHT22;11050;52.222;20.916;2022-07-29T03:42:05;14.40;99.90
21778;DHT22;11050;52.222;20.916;2022-07-29T03:44:34;14.40;99.90
21778;DHT22;11050;52.222;20.916;2022-07-29T03:47:04;14.50;99.90
21778;DHT22;11050;52.222;20.916;2022-07-29T03:49:35;14.50;99.90
21778;DHT22;11050;52.222;20.916;2022-07-29T03:52:03;14.50;99.90
21778;DHT22;11050;52.222;20.916;2022-07-29T03:54:30;14.50;99.90
21778;DHT22;11050;52.222;20.916;2022-07-29T03:56:59;14.60;99.90
21778;DHT22;11050;52.222;20.916;2022-07-29T03:59:27;14.60;99.90
21778;DHT22;11050;52.222;20.916;2022-07-29T04:01:57;14.60;99.90
21778;DHT22;11050;52.222;20.916;2022-07-29T04:04:23;14.60;99.90
21778;DHT22;11050;52.222;20.916;2022-07-29T04:06:50;14.70;99.90
21778;DHT22;11050;52.222;20.916;2022-07-29T04:09:16;14.70;99.90
21778;DHT22;11050;52.222;20.916;2022-07-29T04:11:42;14.80;99.90
21778;DHT22;11050;52.222;20.916;2022-07-29T04:14:08;14.80;99.90
21778;DHT22;11050;52.222;20.916;2022-07-29T04:16:33;14.90;99.90
21778;DHT22;11050;52.222;20.916;2022-07-29T04:18:59;14.90;99.90
21778;DHT22;11050;52.222;20.916;2022-07-29T04:21:25;14.90;99.90
21778;DHT22;11050;52.222;20.916;2022-07-29T04:23:51;15.00;99.90
21778;DHT22;11050;52.222;20.916;2022-07-29T04:26:17;15.00;99.90
21778;DHT22;11050;52.222;20.916;2022-07-29T04:28:44;15.10;99.90
21778;DHT22;11050;52.222;20.916;2022-07-29T04:31:10;15.10;99.90
21778;DHT22;11050;52.222;20.916;2022-07-29T04:33:37;15.20;99.90
21778;DHT22;11050;52.222;20.916;2022-07-29T04:36:03;15.20;99.90
21778;DHT22;11050;52.222;20.916;2022-07-29T04:38:29;15.30;99.90
21778;DHT22;11050;52.222;20.916;2022-07-29T04:40:55;15.40;99.90
21778;DHT22;11050;52.222;20.916;2022-07-29T04:43:21;15.40;99.90
21778;DHT22;11050;52.222;20.916;2022-07-29T04:45:46;15.50;99.90
21778;DHT22;11050;52.222;20.916;2022-07-29T04:48:12;15.50;99.90
21778;DHT22;11050;52.222;20.916;2022-07-29T04:50:38;15.60;99.90
21778;DHT22;11050;52.222;20.916;2022-07-29T04:53:05;15.70;99.90
21778;DHT22;11050;52.222;20.916;2022-07-29T04:55:32;15.70;99.90
21778;DHT22;11050;52.222;20.916;2022-07-29T04:57:59;15.80;99.90
21778;DHT22;11050;52.222;20.916;2022-07-29T05:00:25;15.90;99.90
21778;DHT22;11050;52.222;20.916;2022-07-29T05:02:51;16.00;99.90
21778;DHT22;11050;52.222;20.916;2022-07-29T05:05:17;16.00;99.90
21778;DHT22;11050;52.222;20.916;2022-07-29T05:07:43;16.10;99.90
21778;DHT22;11050;52.222;20.916;2022-07-29T05:10:09;16.10;99.90
21778;DHT22;11050;52.222;20.916;2022-07-29T05:12:35;16.20;99.90
21778;DHT22;11050;52.222;20.916;2022-07-29T05:15:00;16.30;99.90
21778;DHT22;11050;52.222;20.916;2022-07-29T05:17:26;16.40;99.90
21778;DHT22;11050;52.222;20.916;2022-07-29T05:19:52;16.40;99.90
21778;DHT22;11050;52.222;20.916;2022-07-29T05:22:19;16.50;99.90
21778;DHT22;11050;52.222;20.916;2022-07-29T05:24:45;16.50;99.90
21778;DHT22;11050;52.222;20.916;2022-07-29T05:27:12;16.70;99.90
21778;DHT22;11050;52.222;20.916;2022-07-29T05:29:38;16.80;99.90
21778;DHT22;11050;52.222;20.916;2022-07-29T05:32:04;16.80;99.90
21778;DHT22;11050;52.222;20.916;2022-07-29T05:34:30;16.90;99.90
21778;DHT22;11050;52.222;20.916;2022-07-29T05:36:56;17.00;99.90
21778;DHT22;11050;52.222;20.916;2022-07-29T05:39:23;17.10;99.90
21778;DHT22;11050;52.222;20.916;2022-07-29T05:41:49;17.20;99.90
21778;DHT22;11050;52.222;20.916;2022-07-29T05:44:15;17.30;99.90
21778;DHT22;11050;52.222;20.916;2022-07-29T05:46:41;17.30;99.90
21778;DHT22;11050;52.222;20.916;2022-07-29T05:49:07;17.40;99.90
21778;DHT22;11050;52.222;20.916;2022-07-29T05:51:33;17.40;99.90
21778;DHT22;11050;52.222;20.916;2022-07-29T05:53:59;17.50;99.90
21778;DHT22;11050;52.222;20.916;2022-07-29T05:56:25;17.50;99.90
21778;DHT22;11050;52.222;20.916;2022-07-29T05:58:51;17.60;99.90
21778;DHT22;11050;52.222;20.916;2022-07-29T06:01:17;17.60;99.90
21778;DHT22;11050;52.222;20.916;2022-07-29T06:03:44;17.70;99.90
21778;DHT22;11050;52.222;20.916;2022-07-29T06:06:10;17.70;99.90
21778;DHT22;11050;52.222;20.916;2022-07-29T06:08:36;17.80;99.90
21778;DHT22;11050;52.222;20.916;2022-07-29T06:11:03;17.90;99.90
21778;DHT22;11050;52.222;20.916;2022-07-29T06:13:30;18.00;99.90
21778;DHT22;11050;52.222;20.916;2022-07-29T06:15:56;18.10;99.90
21778;DHT22;11050;52.222;20.916;2022-07-29T06:18:22;18.20;99.90
21778;DHT22;11050;52.222;20.916;2022-07-29T06:20:50;18.20;99.90
21778;DHT22;11050;52.222;20.916;2022-07-29T06:23:17;18.40;99.90
21778;DHT22;11050;52.222;20.916;2022-07-29T06:25:43;18.40;99.90
21778;DHT22;11050;52.222;20.916;2022-07-29T06:28:09;18.60;99.90
21778;DHT22;11050;52.222;20.916;2022-07-29T06:30:35;18.70;99.90
21778;DHT22;11050;52.222;20.916;2022-07-29T06:33:01;18.80;99.90
21778;DHT22;11050;52.222;20.916;2022-07-29T06:35:28;18.90;99.90
21778;DHT22;11050;52.222;20.916;2022-07-29T06:37:54;19.00;99.90
21778;DHT22;11050;52.222;20.916;2022-07-29T06:40:20;19.10;99.90
21778;DHT22;11050;52.222;20.916;2022-07-29T06:43:04;19.20;99.90
21778;DHT22;11050;52.222;20.916;2022-07-29T06:45:34;19.30;99.90
21778;DHT22;11050;52.222;20.916;2022-07-29T06:48:00;19.40;99.90
21778;DHT22;11050;52.222;20.916;2022-07-29T06:50:26;19.50;99.90
21778;DHT22;11050;52.222;20.916;2022-07-29T06:52:51;19.60;99.90
21778;DHT22;11050;52.222;20.916;2022-07-29T06:55:17;19.70;99.90
21778;DHT22;11050;52.222;20.916;2022-07-29T06:57:45;19.80;99.90
21778;DHT22;11050;52.222;20.916;2022-07-29T07:00:12;19.90;99.90
21778;DHT22;11050;52.222;20.916;2022-07-29T07:02:38;19.90;99.90
21778;DHT22;11050;52.222;20.916;2022-07-29T07:05:04;20.00;99.90
21778;DHT22;11050;52.222;20.916;2022-07-29T07:07:31;20.20;99.90
21778;DHT22;11050;52.222;20.916;2022-07-29T07:09:57;20.20;99.90
21778;DHT22;11050;52.222;20.916;2022-07-29T07:12:23;20.30;99.90
21778;DHT22;11050;52.222;20.916;2022-07-29T07:14:48;20.40;99.90
21778;DHT22;11050;52.222;20.916;2022-07-29T07:17:14;20.40;99.90
21778;DHT22;11050;52.222;20.916;2022-07-29T07:19:40;20.50;99.90
21778;DHT22;11050;52.222;20.916;2022-07-29T07:22:06;20.60;99.90
21778;DHT22;11050;52.222;20.916;2022-07-29T07:24:32;20.80;99.90
21778;DHT22;11050;52.222;20.916;2022-07-29T07:26:57;20.80;99.90
21778;DHT22;11050;52.222;20.916;2022-07-29T07:29:23;20.90;99.90
21778;DHT22;11050;52.222;20.916;2022-07-29T07:31:49;21.00;99.90
21778;DHT22;11050;52.222;20.916;2022-07-29T07:34:15;21.10;99.90
21778;DHT22;11050;52.222;20.916;2022-07-29T07:36:40;21.20;99.90
21778;DHT22;11050;52.222;20.916;2022-07-29T07:39:06;21.30;99.90
21778;DHT22;11050;52.222;20.916;2022-07-29T07:41:32;21.40;99.90
21778;DHT22;11050;52.222;20.916;2022-07-29T07:43:58;21.60;99.90
21778;DHT22;11050;52.222;20.916;2022-07-29T07:46:24;21.70;99.90
21778;DHT22;11050;52.222;20.916;2022-07-29T07:48:50;21.80;99.90
21778;DHT22;11050;52.222;20.916;2022-07-29T07:51:17;21.90;99.90
21778;DHT22;11050;52.222;20.916;2022-07-29T07:53:43;22.00;99.90
21778;DHT22;11050;52.222;20.916;2022-07-29T07:56:10;22.10;99.90
21778;DHT22;11050;52.222;20.916;2022-07-29T07:58:36;22.20;99.90
21778;DHT22;11050;52.222;20.916;2022-07-29T08:01:02;22.20;99.90
21778;DHT22;11050;52.222;20.916;2022-07-29T08:03:28;22.30;99.90
21778;DHT22;11050;52.222;20.916;2022-07-29T08:05:53;22.40;99.70
21778;DHT22;11050;52.222;20.916;2022-07-29T08:08:19;22.50;98.80
21778;DHT22;11050;52.222;20.916;2022-07-29T08:10:46;22.60;99.00
21778;DHT22;11050;52.222;20.916;2022-07-29T08:13:19;22.80;97.70
21778;DHT22;11050;52.222;20.916;2022-07-29T08:15:46;22.80;97.50
21778;DHT22;11050;52.222;20.916;2022-07-29T08:18:13;22.90;96.80
21778;DHT22;11050;52.222;20.916;2022-07-29T08:20:39;23.00;96.30
21778;DHT22;11050;52.222;20.916;2022-07-29T08:23:07;23.10;95.00
21778;DHT22;11050;52.222;20.916;2022-07-29T08:25:37;23.20;95.40
21778;DHT22;11050;52.222;20.916;2022-07-29T08:28:04;23.20;95.40
21778;DHT22;11050;52.222;20.916;2022-07-29T08:30:30;23.30;94.10
21778;DHT22;11050;52.222;20.916;2022-07-29T08:32:57;23.50;94.20
21778;DHT22;11050;52.222;20.916;2022-07-29T08:35:24;23.60;93.20
21778;DHT22;11050;52.222;20.916;2022-07-29T08:37:51;23.70;91.60
21778;DHT22;11050;52.222;20.916;2022-07-29T08:40:19;23.80;91.80
21778;DHT22;11050;52.222;20.916;2022-07-29T08:42:46;24.00;91.50
21778;DHT22;11050;52.222;20.916;2022-07-29T08:45:12;24.10;90.30
21778;DHT22;11050;52.222;20.916;2022-07-29T08:47:38;24.30;90.70
21778;DHT22;11050;52.222;20.916;2022-07-29T08:50:09;24.50;89.50
21778;DHT22;11050;52.222;20.916;2022-07-29T08:52:37;24.70;88.80
21778;DHT22;11050;52.222;20.916;2022-07-29T08:55:06;25.00;87.70
21778;DHT22;11050;52.222;20.916;2022-07-29T08:57:33;25.20;83.90
21778;DHT22;11050;52.222;20.916;2022-07-29T09:00:03;25.30;83.70
21778;DHT22;11050;52.222;20.916;2022-07-29T09:02:35;25.40;81.90
21778;DHT22;11050;52.222;20.916;2022-07-29T09:05:06;25.50;81.00
21778;DHT22;11050;52.222;20.916;2022-07-29T09:07:32;25.60;79.70
21778;DHT22;11050;52.222;20.916;2022-07-29T09:09:59;25.80;79.80
21778;DHT22;11050;52.222;20.916;2022-07-29T09:12:26;25.90;77.90
21778;DHT22;11050;52.222;20.916;2022-07-29T09:14:52;26.00;75.70
21778;DHT22;11050;52.222;20.916;2022-07-29T09:17:39;26.10;74.90
21778;DHT22;11050;52.222;20.916;2022-07-29T09:20:33;26.30;73.40
21778;DHT22;11050;52.222;20.916;2022-07-29T09:23:17;26.20;72.20
21778;DHT22;11050;52.222;20.916;2022-07-29T09:25:43;26.10;72.60
21778;DHT22;11050;52.222;20.916;2022-07-29T09:28:14;26.10;74.00
21778;DHT22;11050;52.222;20.916;2022-07-29T09:33:17;26.10;71.90
21778;DHT22;11050;52.222;20.916;2022-07-29T09:35:44;26.00;71.70
21778;DHT22;11050;52.222;20.916;2022-07-29T09:38:13;26.00;73.30
21778;DHT22;11050;52.222;20.916;2022-07-29T09:40:39;26.10;70.90
21778;DHT22;11050;52.222;20.916;2022-07-29T09:43:12;26.10;72.10
21778;DHT22;11050;52.222;20.916;2022-07-29T09:45:39;26.10;71.90
21778;DHT22;11050;52.222;20.916;2022-07-29T09:48:16;26.20;68.70
21778;DHT22;11050;52.222;20.916;2022-07-29T09:50:44;26.20;68.00
21778;DHT22;11050;52.222;20.916;2022-07-29T09:55:55;26.20;66.40
21778;DHT22;11050;52.222;20.916;2022-07-29T09:58:21;26.10;66.70
21778;DHT22;11050;52.222;20.916;2022-07-29T10:00:49;26.10;66.90
21778;DHT22;11050;52.222;20.916;2022-07-29T10:03:17;26.00;65.70
21778;DHT22;11050;52.222;20.916;2022-07-29T10:05:44;26.00;67.40
21778;DHT22;11050;52.222;20.916;2022-07-29T10:08:11;25.90;66.20
21778;DHT22;11050;52.222;20.916;2022-07-29T10:10:42;25.90;66.20
21778;DHT22;11050;52.222;20.916;2022-07-29T10:13:13;25.90;66.70
21778;DHT22;11050;52.222;20.916;2022-07-29T10:15:41;26.00;66.30
21778;DHT22;11050;52.222;20.916;2022-07-29T10:18:11;26.10;64.30
21778;DHT22;11050;52.222;20.916;2022-07-29T10:20:39;26.10;64.50
21778;DHT22;11050;52.222;20.916;2022-07-29T10:23:05;26.10;63.40
21778;DHT22;11050;52.222;20.916;2022-07-29T10:25:32;26.20;64.50
21778;DHT22;11050;52.222;20.916;2022-07-29T10:27:58;26.40;64.50
21778;DHT22;11050;52.222;20.916;2022-07-29T10:30:25;26.50;64.00
21778;DHT22;11050;52.222;20.916;2022-07-29T10:42:25;27.40;59.70
21778;DHT22;11050;52.222;20.916;2022-07-29T10:44:54;27.40;58.30
21778;DHT22;11050;52.222;20.916;2022-07-29T10:47:22;27.40;57.30
21778;DHT22;11050;52.222;20.916;2022-07-29T10:50:00;27.50;57.50
21778;DHT22;11050;52.222;20.916;2022-07-29T10:58:22;28.20;55.40
21778;DHT22;11050;52.222;20.916;2022-07-29T11:00:53;28.40;56.00
21778;DHT22;11050;52.222;20.916;2022-07-29T11:03:47;28.50;55.20
21778;DHT22;11050;52.222;20.916;2022-07-29T11:06:15;28.50;52.50
21778;DHT22;11050;52.222;20.916;2022-07-29T11:08:41;28.40;53.10
21778;DHT22;11050;52.222;20.916;2022-07-29T11:13:50;28.40;54.90
21778;DHT22;11050;52.222;20.916;2022-07-29T11:16:18;28.30;52.50
21778;DHT22;11050;52.222;20.916;2022-07-29T11:21:37;28.10;52.60
21778;DHT22;11050;52.222;20.916;2022-07-29T11:24:12;28.10;53.80
21778;DHT22;11050;52.222;20.916;2022-07-29T11:26:39;28.00;53.50
21778;DHT22;11050;52.222;20.916;2022-07-29T11:29:18;28.00;53.40
21778;DHT22;11050;52.222;20.916;2022-07-29T11:31:48;27.90;53.20
21778;DHT22;11050;52.222;20.916;2022-07-29T11:34:27;27.80;53.20
21778;DHT22;11050;52.222;20.916;2022-07-29T11:39:47;27.80;53.30
21778;DHT22;11050;52.222;20.916;2022-07-29T11:45:03;27.90;53.80
21778;DHT22;11050;52.222;20.916;2022-07-29T11:47:32;27.90;53.90
21778;DHT22;11050;52.222;20.916;2022-07-29T11:50:01;27.90;53.60
21778;DHT22;11050;52.222;20.916;2022-07-29T11:52:35;28.00;53.20
21778;DHT22;11050;52.222;20.916;2022-07-29T11:55:09;28.30;53.40
21778;DHT22;11050;52.222;20.916;2022-07-29T11:57:48;28.60;53.20
21778;DHT22;11050;52.222;20.916;2022-07-29T12:00:38;28.90;50.80
21778;DHT22;11050;52.222;20.916;2022-07-29T12:03:08;29.40;52.20
21778;DHT22;11050;52.222;20.916;2022-07-29T12:05:41;29.80;50.40
21778;DHT22;11050;52.222;20.916;2022-07-29T12:10:45;30.20;47.00
21778;DHT22;11050;52.222;20.916;2022-07-29T12:13:13;30.30;49.00
21778;DHT22;11050;52.222;20.916;2022-07-29T12:15:41;30.50;47.60
21778;DHT22;11050;52.222;20.916;2022-07-29T12:18:15;30.90;46.70
21778;DHT22;11050;52.222;20.916;2022-07-29T12:20:43;31.20;45.30
21778;DHT22;11050;52.222;20.916;2022-07-29T12:23:10;31.50;44.50
21778;DHT22;11050;52.222;20.916;2022-07-29T12:25:41;31.60;45.10
21778;DHT22;11050;52.222;20.916;2022-07-29T12:28:12;31.60;43.60
21778;DHT22;11050;52.222;20.916;2022-07-29T12:30:46;31.50;43.70
21778;DHT22;11050;52.222;20.916;2022-07-29T12:35:47;31.00;44.20
21778;DHT22;11050;52.222;20.916;2022-07-29T12:38:17;30.70;44.60
21778;DHT22;11050;52.222;20.916;2022-07-29T12:40:45;30.40;44.30
21778;DHT22;11050;52.222;20.916;2022-07-29T12:43:26;30.10;44.50
21778;DHT22;11050;52.222;20.916;2022-07-29T12:45:54;29.70;46.40
21778;DHT22;11050;52.222;20.916;2022-07-29T12:48:42;29.50;46.70
21778;DHT22;11050;52.222;20.916;2022-07-29T12:51:09;29.20;47.50
21778;DHT22;11050;52.222;20.916;2022-07-29T12:53:39;29.10;47.60
21778;DHT22;11050;52.222;20.916;2022-07-29T12:56:06;29.00;47.80
21778;DHT22;11050;52.222;20.916;2022-07-29T12:58:41;29.00;48.40
21778;DHT22;11050;52.222;20.916;2022-07-29T13:01:13;28.90;48.20
21778;DHT22;11050;52.222;20.916;2022-07-29T13:06:31;29.00;48.40
21778;DHT22;11050;52.222;20.916;2022-07-29T13:09:09;29.10;49.30
21778;DHT22;11050;52.222;20.916;2022-07-29T13:17:18;29.20;48.20
21778;DHT22;11050;52.222;20.916;2022-07-29T13:19:53;29.10;49.30
21778;DHT22;11050;52.222;20.916;2022-07-29T13:22:31;29.10;48.30
21778;DHT22;11050;52.222;20.916;2022-07-29T13:25:01;28.90;47.20
21778;DHT22;11050;52.222;20.916;2022-07-29T13:27:30;28.90;46.90
21778;DHT22;11050;52.222;20.916;2022-07-29T13:29:58;29.10;48.30
21778;DHT22;11050;52.222;20.916;2022-07-29T13:32:28;29.50;47.80
21778;DHT22;11050;52.222;20.916;2022-07-29T13:35:00;29.90;48.10
21778;DHT22;11050;52.222;20.916;2022-07-29T13:37:28;30.30;46.60
21778;DHT22;11050;52.222;20.916;2022-07-29T13:39:55;30.60;46.40
21778;DHT22;11050;52.222;20.916;2022-07-29T13:42:23;30.70;46.00
21778;DHT22;11050;52.222;20.916;2022-07-29T13:44:50;30.60;45.30
21778;DHT22;11050;52.222;20.916;2022-07-29T13:47:20;30.70;44.20
21778;DHT22;11050;52.222;20.916;2022-07-29T13:49:47;30.70;45.50
21778;DHT22;11050;52.222;20.916;2022-07-29T13:52:14;30.70;44.60
21778;DHT22;11050;52.222;20.916;2022-07-29T13:54:41;30.90;44.20
21778;DHT22;11050;52.222;20.916;2022-07-29T13:57:08;31.20;44.00
21778;DHT22;11050;52.222;20.916;2022-07-29T13:59:34;31.70;43.10
21778;DHT22;11050;52.222;20.916;2022-07-29T14:02:00;32.20;41.90
21778;DHT22;11050;52.222;20.916;2022-07-29T14:04:25;32.60;41.30
21778;DHT22;11050;52.222;20.916;2022-07-29T14:06:51;33.10;41.20
21778;DHT22;11050;52.222;20.916;2022-07-29T14:09:17;33.30;39.90
21778;DHT22;11050;52.222;20.916;2022-07-29T14:11:43;33.50;39.80
21778;DHT22;11050;52.222;20.916;2022-07-29T14:14:09;33.60;38.10
21778;DHT22;11050;52.222;20.916;2022-07-29T14:16:36;33.80;38.10
21778;DHT22;11050;52.222;20.916;2022-07-29T14:19:02;34.00;37.00
21778;DHT22;11050;52.222;20.916;2022-07-29T14:21:28;33.90;37.00
21778;DHT22;11050;52.222;20.916;2022-07-29T14:23:54;33.70;36.80
21778;DHT22;11050;52.222;20.916;2022-07-29T14:26:21;33.40;37.80
21778;DHT22;11050;52.222;20.916;2022-07-29T14:28:48;33.10;38.00
21778;DHT22;11050;52.222;20.916;2022-07-29T14:31:14;32.90;37.50
21778;DHT22;11050;52.222;20.916;2022-07-29T14:33:41;32.50;38.50
21778;DHT22;11050;52.222;20.916;2022-07-29T14:36:08;32.30;39.00
21778;DHT22;11050;52.222;20.916;2022-07-29T14:38:35;32.10;38.80
21778;DHT22;11050;52.222;20.916;2022-07-29T14:41:03;32.00;39.30
21778;DHT22;11050;52.222;20.916;2022-07-29T14:43:29;32.00;39.60
21778;DHT22;11050;52.222;20.916;2022-07-29T14:45:55;32.00;39.20
21778;DHT22;11050;52.222;20.916;2022-07-29T14:48:20;31.90;39.70
21778;DHT22;11050;52.222;20.916;2022-07-29T14:50:46;32.00;39.20
21778;DHT22;11050;52.222;20.916;2022-07-29T14:53:12;32.10;38.90
21778;DHT22;11050;52.222;20.916;2022-07-29T14:55:39;32.30;39.20
21778;DHT22;11050;52.222;20.916;2022-07-29T14:58:05;32.60;38.80
21778;DHT22;11050;52.222;20.916;2022-07-29T15:00:31;32.90;38.30
21778;DHT22;11050;52.222;20.916;2022-07-29T15:02:59;33.40;36.40
21778;DHT22;11050;52.222;20.916;2022-07-29T15:05:26;33.60;37.00
21778;DHT22;11050;52.222;20.916;2022-07-29T15:07:52;34.00;36.30
21778;DHT22;11050;52.222;20.916;2022-07-29T15:10:19;34.50;34.90
21778;DHT22;11050;52.222;20.916;2022-07-29T15:12:45;34.80;34.10
21778;DHT22;11050;52.222;20.916;2022-07-29T15:15:10;34.90;33.70
21778;DHT22;11050;52.222;20.916;2022-07-29T15:17:36;35.10;33.60
21778;DHT22;11050;52.222;20.916;2022-07-29T15:20:02;35.20;32.90
21778;DHT22;11050;52.222;20.916;2022-07-29T15:22:29;35.30;33.20
21778;DHT22;11050;52.222;20.916;2022-07-29T15:24:54;35.30;32.60
21778;DHT22;11050;52.222;20.916;2022-07-29T15:27:20;35.30;32.90
21778;DHT22;11050;52.222;20.916;2022-07-29T15:29:46;35.30;32.50
21778;DHT22;11050;52.222;20.916;2022-07-29T15:32:12;35.30;32.90
21778;DHT22;11050;52.222;20.916;2022-07-29T15:34:38;35.40;32.30
21778;DHT22;11050;52.222;20.916;2022-07-29T15:37:05;35.30;32.00
21778;DHT22;11050;52.222;20.916;2022-07-29T15:39:30;35.20;32.10
21778;DHT22;11050;52.222;20.916;2022-07-29T15:41:56;35.20;32.10
21778;DHT22;11050;52.222;20.916;2022-07-29T15:44:24;35.10;32.60
21778;DHT22;11050;52.222;20.916;2022-07-29T15:46:50;35.00;31.70
21778;DHT22;11050;52.222;20.916;2022-07-29T15:49:36;34.80;32.20
21778;DHT22;11050;52.222;20.916;2022-07-29T15:52:06;34.60;32.50
21778;DHT22;11050;52.222;20.916;2022-07-29T15:54:35;34.30;33.10
21778;DHT22;11050;52.222;20.916;2022-07-29T15:57:03;34.10;33.60
21778;DHT22;11050;52.222;20.916;2022-07-29T15:59:30;33.90;33.90
21778;DHT22;11050;52.222;20.916;2022-07-29T16:01:57;33.70;34.60
21778;DHT22;11050;52.222;20.916;2022-07-29T16:04:23;33.60;34.40
21778;DHT22;11050;52.222;20.916;2022-07-29T16:06:49;33.40;34.70
21778;DHT22;11050;52.222;20.916;2022-07-29T16:09:16;33.30;35.10
21778;DHT22;11050;52.222;20.916;2022-07-29T16:11:43;33.00;35.10
21778;DHT22;11050;52.222;20.916;2022-07-29T16:14:11;32.90;35.20
21778;DHT22;11050;52.222;20.916;2022-07-29T16:16:37;32.70;35.30
21778;DHT22;11050;52.222;20.916;2022-07-29T16:19:04;32.30;36.10
21778;DHT22;11050;52.222;20.916;2022-07-29T16:21:31;31.90;36.80
21778;DHT22;11050;52.222;20.916;2022-07-29T16:23:58;31.40;37.10
21778;DHT22;11050;52.222;20.916;2022-07-29T16:26:25;31.00;38.50
21778;DHT22;11050;52.222;20.916;2022-07-29T16:28:51;30.50;38.20